createdAt,value
2023-05-17T00:01:26.779Z,72.73
2023-05-17T00:05:11.617Z,72.22
2023-05-17T00:08:54.366Z,71.38
2023-05-17T00:12:37.143Z,71.74
2023-05-17T00:16:21.911Z,70.49
2023-05-17T00:20:07.270Z,70.78
2023-05-17T00:23:49.985Z,71.11
2023-05-17T00:27:32.692Z,70.98
2023-05-17T00:31:15.413Z,70.61
2023-05-17T00:34:58.131Z,70.21
2023-05-17T00:38:42.373Z,70.05
2023-05-17T00:42:25.067Z,69.97
2023-05-17T00:46:07.879Z,69.02
2023-05-17T00:49:50.629Z,69.26
2023-05-17T00:53:34.938Z,70.06
2023-05-17T00:57:21.568Z,68.88
2023-05-17T01:01:04.627Z,68.78
2023-05-17T01:04:47.473Z,69.41
2023-05-17T01:08:30.766Z,69.73
2023-05-17T01:12:23.503Z,69.45
2023-05-17T01:16:11.798Z,69.85
2023-05-17T01:20:07.518Z,70.30
2023-05-17T01:23:57.113Z,70.26
2023-05-17T01:27:42.610Z,69.50
2023-05-17T01:31:26.247Z,70.10
2023-05-17T01:35:10.176Z,71.45
2023-05-17T01:38:52.915Z,71.68
2023-05-17T01:42:38.835Z,71.82
2023-05-17T01:46:27.720Z,72.35
2023-05-17T01:50:11.625Z,72.41
2023-05-17T01:53:57.907Z,72.40
2023-05-17T01:57:41.444Z,72.65
2023-05-17T02:01:25.782Z,72.93
2023-05-17T02:05:09.204Z,73.88
2023-05-17T02:08:52.091Z,73.73
2023-05-17T02:12:37.863Z,74.39
2023-05-17T02:16:20.916Z,74.04
2023-05-17T02:20:05.677Z,74.97
2023-05-17T02:23:48.810Z,75.31
2023-05-17T02:27:31.612Z,75.14
2023-05-17T02:31:14.431Z,74.93
2023-05-17T02:34:57.188Z,74.27
2023-05-17T02:38:41.395Z,74.68
2023-05-17T02:42:24.138Z,74.31
2023-05-17T02:46:07.158Z,73.40
2023-05-17T02:49:49.910Z,73.26
2023-05-17T02:53:32.604Z,73.85
2023-05-17T02:57:16.932Z,73.53
2023-05-17T03:00:59.673Z,72.76
2023-05-17T03:04:42.590Z,72.32
2023-05-17T03:08:25.308Z,72.14
2023-05-17T03:12:09.564Z,72.86
2023-05-17T03:15:53.692Z,72.50
2023-05-17T03:19:36.920Z,71.60
2023-05-17T03:23:19.722Z,71.71
2023-05-17T03:27:02.652Z,71.12
2023-05-17T03:30:45.484Z,71.42
2023-05-17T03:34:29.717Z,70.37
2023-05-17T03:38:12.434Z,70.45
2023-05-17T03:41:55.177Z,71.06
2023-05-17T03:45:37.910Z,70.63
2023-05-17T03:49:21.023Z,69.26
2023-05-17T03:53:05.237Z,69.34
2023-05-17T03:56:49.182Z,70.13
2023-05-17T04:00:31.966Z,69.29
2023-05-17T04:04:14.785Z,70.38
2023-05-17T04:07:57.824Z,69.13
2023-05-17T04:11:42.450Z,69.09
2023-05-17T04:15:25.211Z,68.35
2023-05-17T04:19:08.052Z,69.04
2023-05-17T04:22:50.865Z,68.37
2023-05-17T04:26:33.641Z,67.69
2023-05-17T04:30:18.078Z,68.36
2023-05-17T04:34:01.177Z,68.61
2023-05-17T04:37:44.413Z,68.45
2023-05-17T04:41:27.366Z,68.51
2023-05-17T04:45:11.234Z,69.41
2023-05-17T04:48:56.861Z,69.72
2023-05-17T04:52:39.762Z,68.52
2023-05-17T04:56:22.663Z,67.72
2023-05-17T05:00:07.125Z,69.13
2023-05-17T05:03:49.942Z,70.49
2023-05-17T05:07:34.010Z,68.13
2023-05-17T05:11:16.749Z,67.48
2023-05-17T05:15:00.964Z,67.63
2023-05-17T05:18:44.194Z,65.99
2023-05-17T05:22:27.084Z,64.57
2023-05-17T05:26:11.388Z,63.74
2023-05-17T05:29:56.139Z,64.73
2023-05-17T05:33:40.598Z,65.52
2023-05-17T05:37:23.439Z,62.27
2023-05-17T05:41:06.297Z,62.91
2023-05-17T05:44:50.670Z,63.42
2023-05-17T05:48:39.875Z,63.75
2023-05-17T05:52:22.682Z,62.58
2023-05-17T05:56:05.959Z,63.42
2023-05-17T05:59:50.057Z,63.84
2023-05-17T06:03:32.773Z,63.31
2023-05-17T06:07:15.694Z,62.97
2023-05-17T06:10:58.417Z,63.98
2023-05-17T06:14:41.145Z,63.65
2023-05-17T06:18:25.312Z,64.87
2023-05-17T06:22:08.092Z,65.19
2023-05-17T06:25:51.092Z,64.16
2023-05-17T06:29:34.008Z,68.97
2023-05-17T06:33:16.820Z,66.92
2023-05-17T06:37:01.132Z,69.18
2023-05-17T06:40:43.924Z,65.67
2023-05-17T06:44:26.665Z,65.90
2023-05-17T06:48:09.478Z,64.89
2023-05-17T06:51:52.253Z,64.84
2023-05-17T06:55:36.434Z,64.87
2023-05-17T06:59:19.224Z,64.37
2023-05-17T07:03:03.109Z,64.55
2023-05-17T07:06:48.077Z,63.72
2023-05-17T07:10:31.037Z,64.31
2023-05-17T07:14:16.934Z,64.88
2023-05-17T07:18:03.158Z,65.42
2023-05-17T07:21:46.915Z,65.78
2023-05-17T07:25:29.958Z,63.83
2023-05-17T07:29:16.306Z,63.80
2023-05-17T07:32:59.040Z,61.63
2023-05-17T07:36:41.790Z,61.63
2023-05-17T07:40:26.724Z,62.55
2023-05-17T07:44:09.777Z,61.77
2023-05-17T07:47:53.946Z,60.82
2023-05-17T07:51:39.140Z,61.33
2023-05-17T07:55:21.831Z,61.46
2023-05-17T07:59:04.627Z,61.57
2023-05-17T08:02:47.572Z,61.98
2023-05-17T08:06:31.779Z,59.32
2023-05-17T08:10:14.570Z,58.94
2023-05-17T08:13:57.266Z,56.65
2023-05-17T08:17:40.180Z,56.87
2023-05-17T08:21:23.401Z,57.96
2023-05-17T08:25:08.218Z,57.85
2023-05-17T08:28:50.985Z,56.17
2023-05-17T08:32:33.713Z,56.18
2023-05-17T08:36:17.255Z,56.70
2023-05-17T08:40:00.055Z,57.73
2023-05-17T08:43:44.713Z,57.69
2023-05-17T08:47:33.995Z,58.34
2023-05-17T08:51:18.723Z,58.11
2023-05-17T08:55:02.545Z,59.22
2023-05-17T08:58:56.400Z,56.76
2023-05-17T09:02:40.437Z,53.91
2023-05-17T09:06:24.168Z,54.38
2023-05-17T09:10:07.921Z,55.36
2023-05-17T09:13:52.096Z,54.63
2023-05-17T09:17:35.223Z,53.68
2023-05-17T09:21:18.082Z,55.68
2023-05-17T09:25:04.340Z,57.40
2023-05-17T09:28:47.947Z,53.20
2023-05-17T09:32:34.340Z,56.37
2023-05-17T09:36:19.406Z,56.86
2023-05-17T09:40:02.331Z,53.21
2023-05-17T09:43:47.176Z,53.10
2023-05-17T09:47:36.760Z,54.09
2023-05-17T09:51:19.580Z,53.71
2023-05-17T09:55:02.621Z,56.56
2023-05-17T09:58:46.257Z,50.45
2023-05-17T10:02:30.063Z,51.56
2023-05-17T10:06:27.808Z,51.38
2023-05-17T10:10:19.355Z,51.94
2023-05-17T10:14:05.966Z,52.57
2023-05-17T10:17:48.984Z,50.02
2023-05-17T10:21:33.547Z,50.96
2023-05-17T10:25:16.652Z,51.22
2023-05-17T10:29:02.138Z,51.96
2023-05-17T10:32:45.699Z,50.04
2023-05-17T10:36:31.234Z,49.31
2023-05-17T10:40:17.508Z,48.83
2023-05-17T10:44:00.682Z,47.81
2023-05-17T10:47:43.858Z,49.86
2023-05-17T10:51:29.707Z,52.32
2023-05-17T10:55:12.645Z,48.54
2023-05-17T10:59:21.974Z,45.19
2023-05-17T11:03:16.709Z,47.05
2023-05-17T11:07:25.154Z,46.92
2023-05-17T11:11:13.000Z,47.99
2023-05-17T11:14:57.306Z,44.22
2023-05-17T11:18:50.366Z,42.32
2023-05-17T11:22:40.640Z,42.71
2023-05-17T11:26:25.802Z,43.74
2023-05-17T11:30:18.325Z,44.70
2023-05-17T11:34:01.603Z,42.70
2023-05-17T11:37:45.144Z,43.37
2023-05-17T11:41:27.873Z,45.40
2023-05-17T11:45:12.110Z,45.82
2023-05-17T11:48:54.949Z,45.38
2023-05-17T11:52:37.705Z,43.04
2023-05-17T11:56:26.453Z,43.80
2023-05-17T12:00:17.986Z,42.72
2023-05-17T12:04:00.731Z,42.99
2023-05-17T12:07:43.531Z,43.58
2023-05-17T12:11:27.320Z,44.76
2023-05-17T12:15:12.249Z,46.00
2023-05-17T12:18:59.555Z,43.42
2023-05-17T12:22:54.947Z,45.55
2023-05-17T12:26:43.862Z,45.93
2023-05-17T12:30:26.998Z,43.33
2023-05-17T12:34:12.881Z,42.88
2023-05-17T12:37:55.809Z,44.03
2023-05-17T12:41:39.364Z,43.87
2023-05-17T12:45:22.099Z,43.27
2023-05-17T12:49:08.420Z,43.62
2023-05-17T12:52:52.728Z,46.39
2023-05-17T12:56:35.478Z,41.72
2023-05-17T13:00:19.545Z,44.80
2023-05-17T13:04:02.489Z,42.46
2023-05-17T13:07:45.430Z,40.90
2023-05-17T13:11:29.503Z,42.21
2023-05-17T13:15:12.502Z,41.85
2023-05-17T13:18:55.643Z,42.35
2023-05-17T13:22:42.067Z,43.40
2023-05-17T13:26:24.810Z,43.67
2023-05-17T13:30:10.834Z,43.86
2023-05-17T13:33:53.640Z,45.31
2023-05-17T13:37:36.680Z,42.87
2023-05-17T13:41:19.952Z,39.63
2023-05-17T13:45:02.716Z,42.55
2023-05-17T13:48:47.319Z,38.79
2023-05-17T13:52:30.104Z,38.87
2023-05-17T13:56:15.084Z,38.75
2023-05-17T13:59:57.796Z,40.16
2023-05-17T14:03:40.553Z,40.48
2023-05-17T14:07:24.590Z,40.95
2023-05-17T14:11:07.869Z,39.94
2023-05-17T14:14:53.727Z,42.29
2023-05-17T14:18:40.715Z,42.78
2023-05-17T14:22:24.859Z,43.42
2023-05-17T14:26:07.752Z,42.11
2023-05-17T14:29:50.486Z,42.78
2023-05-17T14:33:33.214Z,43.96
2023-05-17T14:37:16.040Z,43.28
2023-05-17T14:41:01.035Z,43.30
2023-05-17T14:44:43.822Z,41.24
2023-05-17T14:48:26.762Z,39.42
2023-05-17T14:52:10.823Z,40.57
2023-05-17T14:55:53.478Z,38.86
2023-05-17T14:59:37.989Z,40.25
2023-05-17T15:03:22.266Z,41.35
2023-05-17T15:07:06.039Z,43.21
2023-05-17T15:10:50.166Z,44.90
2023-05-17T15:14:32.881Z,42.44
2023-05-17T15:18:17.645Z,42.02
2023-05-17T15:22:01.742Z,42.87
2023-05-17T15:25:44.460Z,42.85
2023-05-17T15:29:27.735Z,42.44
2023-05-17T15:33:10.785Z,41.59
2023-05-17T15:36:56.331Z,41.99
2023-05-17T15:40:39.254Z,42.82
2023-05-17T15:44:23.836Z,41.80
2023-05-17T15:48:07.426Z,43.03
2023-05-17T15:51:50.224Z,43.40
2023-05-17T15:55:34.286Z,43.18
2023-05-17T15:59:17.406Z,42.24
2023-05-17T16:03:00.268Z,41.08
2023-05-17T16:06:43.235Z,41.61
2023-05-17T16:10:26.943Z,42.78
2023-05-17T16:14:11.127Z,42.48
2023-05-17T16:17:54.143Z,43.10
2023-05-17T16:21:37.129Z,44.53
2023-05-17T16:25:20.695Z,43.32
2023-05-17T16:29:03.403Z,44.60
2023-05-17T16:32:48.116Z,42.01
2023-05-17T16:36:31.028Z,39.58
2023-05-17T16:40:13.916Z,39.97
2023-05-17T16:43:56.671Z,42.56
2023-05-17T16:47:39.488Z,44.25
2023-05-17T16:51:24.283Z,45.14
2023-05-17T16:55:07.892Z,45.48
2023-05-17T16:58:52.277Z,46.43
2023-05-17T17:02:34.994Z,45.89
2023-05-17T17:06:17.709Z,46.73
2023-05-17T17:10:01.786Z,46.91
2023-05-17T17:13:44.469Z,47.83
2023-05-17T17:17:27.620Z,48.59
2023-05-17T17:21:11.199Z,47.52
2023-05-17T17:24:53.930Z,47.73
2023-05-17T17:28:38.095Z,49.70
2023-05-17T17:32:20.876Z,49.71
2023-05-17T17:36:03.751Z,49.49
2023-05-17T17:39:46.399Z,49.04
2023-05-17T17:43:29.092Z,50.00
2023-05-17T17:47:13.349Z,51.24
2023-05-17T17:50:56.175Z,51.57
2023-05-17T17:54:38.863Z,52.48
2023-05-17T17:58:21.664Z,51.32
2023-05-17T18:02:04.441Z,51.33
2023-05-17T18:05:48.560Z,51.72
2023-05-17T18:09:31.746Z,52.02
2023-05-17T18:13:14.467Z,52.64
2023-05-17T18:16:57.777Z,53.10
2023-05-17T18:20:40.558Z,54.07
2023-05-17T18:24:24.695Z,54.43
2023-05-17T18:28:08.776Z,55.44
2023-05-17T18:31:52.145Z,55.93
2023-05-17T18:35:35.203Z,54.41
2023-05-17T18:39:17.917Z,53.63
2023-05-17T18:43:02.005Z,53.95
2023-05-17T18:46:45.159Z,53.83
2023-05-17T18:50:29.329Z,53.12
2023-05-17T18:54:12.195Z,53.96
2023-05-17T18:57:54.869Z,54.76
2023-05-17T19:01:39.462Z,54.76
2023-05-17T19:05:22.396Z,55.44
2023-05-17T19:09:05.115Z,55.84
2023-05-17T19:12:47.863Z,55.46
2023-05-17T19:16:30.710Z,55.28
2023-05-17T19:20:15.035Z,56.32
2023-05-17T19:23:57.784Z,57.27
2023-05-17T19:27:40.537Z,56.65
2023-05-17T19:31:23.386Z,56.83
2023-05-17T19:35:07.055Z,57.50
2023-05-17T19:38:52.101Z,58.28
2023-05-17T19:42:34.892Z,58.87
2023-05-17T19:46:17.573Z,59.29
2023-05-17T19:50:00.264Z,57.74
2023-05-17T19:53:52.331Z,57.63
2023-05-17T19:57:37.867Z,57.62
2023-05-17T20:01:23.490Z,57.77
2023-05-17T20:05:06.744Z,58.49
2023-05-17T20:08:49.512Z,58.71
2023-05-17T20:12:32.280Z,59.03
2023-05-17T20:16:16.505Z,58.68
2023-05-17T20:19:59.226Z,58.47
2023-05-17T20:23:42.182Z,58.70
2023-05-17T20:27:25.907Z,58.07
2023-05-17T20:31:09.349Z,57.13
2023-05-17T20:34:53.480Z,57.96
2023-05-17T20:38:36.161Z,57.66
2023-05-17T20:42:20.302Z,57.06
2023-05-17T20:49:50.372Z,57.39
2023-05-17T20:53:34.587Z,58.02
2023-05-17T20:57:17.399Z,57.57
2023-05-17T21:01:01.015Z,57.74
2023-05-17T21:04:55.466Z,57.27
2023-05-17T21:08:40.170Z,56.83
2023-05-17T21:12:23.952Z,56.65
2023-05-17T21:16:07.765Z,57.20
2023-05-17T21:19:53.452Z,57.89
2023-05-17T21:23:36.159Z,58.07
2023-05-17T21:27:20.338Z,57.39
2023-05-17T21:31:03.194Z,57.36
2023-05-17T21:34:45.940Z,57.50
2023-05-17T21:38:29.033Z,57.68
2023-05-17T21:42:11.717Z,57.32
2023-05-17T21:45:55.983Z,57.40
2023-05-17T21:49:38.706Z,57.51
2023-05-17T21:53:21.394Z,57.59
2023-05-17T21:57:04.233Z,57.10
2023-05-17T22:00:46.992Z,57.67
2023-05-17T22:04:31.522Z,58.07
2023-05-17T22:08:14.543Z,58.54
2023-05-17T22:11:58.905Z,59.08
2023-05-17T22:15:42.842Z,58.66
2023-05-17T22:19:26.145Z,59.09
2023-05-17T22:23:10.498Z,59.14
2023-05-17T22:26:53.184Z,59.34
2023-05-17T22:30:36.437Z,59.20
2023-05-17T22:34:19.255Z,59.21
2023-05-17T22:38:03.284Z,59.67
2023-05-17T22:41:48.967Z,59.21
2023-05-17T22:45:33.287Z,59.63
2023-05-17T22:49:16.950Z,60.01
2023-05-17T22:53:00.218Z,59.85
2023-05-17T22:56:42.920Z,59.68
2023-05-17T23:00:28.246Z,59.70
2023-05-17T23:04:11.190Z,58.97
2023-05-17T23:07:54.060Z,59.14
2023-05-17T23:11:36.779Z,59.45
2023-05-17T23:15:19.533Z,58.99
2023-05-17T23:19:03.973Z,59.28
2023-05-17T23:22:47.643Z,59.83
2023-05-17T23:26:30.416Z,60.06
2023-05-17T23:30:13.358Z,60.20
2023-05-17T23:33:56.107Z,60.68
2023-05-17T23:37:40.252Z,60.80
2023-05-17T23:41:25.343Z,60.62
2023-05-17T23:45:09.229Z,61.60
2023-05-17T23:48:51.956Z,61.80
2023-05-17T23:52:38.821Z,62.21
2023-05-17T23:56:23.193Z,62.24
